• Join FlightAware (Why Join?)
  • Login
  • US Flag 
07:27PM EST


 

Airport Tracker/Info


-or-


 

Live Flight TrackerFlight Track Log ✈ UAL139 ✈ 01-Sep-2013 ✈ KDEN - RJAA / NRT

Flight Track Log - Related Links

Times and Time Zones

All times are in EDT time to prevent confusion due to time zone crossing. See the UAL139 flight status page for this flight to view local times or setup timezone preferences in your user account.

Time Position Orientation Groundspeed Altitude Reporting Facility
EDT Latitude Longitude Course Direction KTS MPH feet Rate Location/Type
04:40PM 39.8570 -104.6750 351° North  Level FlightAware
05:02PM 40.1072 -105.0024 276° West  Level Estimated
05:02PM 39.8830 -104.6960 276° West 135 155 5,100  Level FlightAware
05:03PM 39.8670 -104.6960 180° South 191 220 5,100 900 Level FlightAware
05:03PM 39.8480 -104.6970 182° South 209 241 5,700 1,800 Climbing FlightAware
05:03PM 39.8320 -104.6990 185° South 215 247 6,200 1,560 Climbing FlightAware
05:03PM 39.8180 -104.7030 192° South 229 264 6,500 1,140 Climbing FlightAware
05:04PM 39.7950 -104.7110 195° South 248 285 6,900 1,260 Climbing FlightAware
05:04PM 39.7710 -104.7200 196° South 269 310 7,400 1,620 Climbing FlightAware
05:04PM 39.7470 -104.7290 196° South 283 326 8,000 1,800 Climbing FlightAware
05:05PM 39.7400 -104.7340 209° Southwest 286 329 8,200 2,520 Climbing FlightAware
05:05PM 39.7320 -104.7440 224° Southwest 287 330 8,600 3,000 Climbing FlightAware
05:05PM 39.7260 -104.7550 235° Southwest 289 333 9,000 2,580 Climbing FlightAware
05:05PM 39.7220 -104.7690 250° West 292 336 9,300 2,580 Climbing FlightAware
05:05PM 39.7200 -104.7830 259° West 294 338 9,700 1,920 Climbing FlightAware
05:05PM 39.7220 -104.8300 273° West 315 362 10,400 1,260 Climbing FlightAware
05:06PM 39.7380 -104.8880 290° West 342 394 11,000 1,740 Climbing FlightAware
05:07PM 39.7620 -104.9680 291° West 353 406 12,500 2,280 Climbing FlightAware
05:07PM 39.7830 -105.0360 292° West 359 413 13,800 2,160 Climbing FlightAware
05:08PM 39.8040 -105.1060 291° West 369 425 15,000 1,860 Climbing FlightAware
05:08PM 39.8260 -105.1800 291° West 379 436 16,000 1,860 Climbing FlightAware
05:09PM 39.8430 -105.2560 286° West 385 443 17,200 1,860 Climbing FlightAware
05:09PM 39.8620 -105.3050 297° West 386 444 18,000 1,980 Climbing FlightAware
05:10PM 39.9060 -105.4010 301° West 390 449 19,600 2,040 Climbing FlightAware
05:11PM 39.9220 -105.4370 300° West 392 451 20,100 1,740 Climbing FlightAware
05:11PM 39.9390 -105.4960 291° West 395 455 20,900 1,620 Climbing FlightAware
05:12PM 39.9330 -105.5980 266° West 405 466 22,000 1,500 Climbing FlightAware
05:12PM 39.9030 -105.6850 246° West 409 471 23,000 1,560 Climbing FlightAware
05:13PM 39.8880 -105.7560 255° West 412 474 23,800 1,440 Climbing FlightAware
05:13PM 39.8670 -105.8100 243° Southwest 421 484 24,300 1,320 Climbing FlightAware
05:14PM 39.8410 -105.8660 239° Southwest 421 484 24,900 1,200 Climbing FlightAware
05:14PM 39.8260 -105.9530 257° West 422 486 25,600 960 Climbing FlightAware
05:15PM 39.8360 -106.0290 280° West 428 493 26,100 780 Climbing FlightAware
05:15PM 39.8620 -106.0930 298° West 435 501 26,400 840 Climbing FlightAware
05:16PM 39.9020 -106.1660 306° West 443 510 26,900 780 Climbing FlightAware
05:16PM 39.9280 -106.2330 297° West 452 520 27,300 660 Climbing FlightAware
05:17PM 39.9630 -106.3340 294° West 464 534 27,700 480 Climbing FlightAware
05:17PM 39.9920 -106.4220 293° West 475 547 27,900 420 Climbing FlightAware
05:18PM 40.0130 -106.5230 285° West 487 560 28,200 840 Climbing FlightAware
05:19PM 40.0280 -106.6220 281° West 486 559 28,900 1,380 Climbing FlightAware
05:19PM 40.0430 -106.7290 280° West 480 552 29,900 1,260 Climbing FlightAware
05:20PM 40.0580 -106.8330 281° West 481 554 30,500 780 Climbing FlightAware
05:20PM 40.0770 -106.9210 286° West 486 559 30,800 660 Climbing FlightAware
05:21PM 40.1040 -107.0200 290° West 492 566 31,300 360 Climbing FlightAware
05:22PM 40.1200 -107.1110 283° West 492 566 31,300 960 Level FlightAware
05:22PM 40.1370 -107.2250 281° West 493 567 32,500 1,500 Climbing FlightAware
05:23PM 40.1490 -107.3090 281° West 492 566 33,000 960 Climbing FlightAware
05:23PM 40.1650 -107.4280 280° West 492 566 33,600 1,020 Climbing FlightAware
05:24PM 40.1790 -107.5370 280° West 490 564 34,300 1,080 Climbing FlightAware
05:25PM 40.1910 -107.6290 280° West 487 560 34,900 960 Climbing FlightAware
05:25PM 40.2060 -107.7460 280° West 485 558 35,500 900 Climbing FlightAware
05:26PM 40.2170 -107.8330 279° West 482 555 36,000 360 Climbing FlightAware
05:26PM 40.2320 -107.9460 280° West 479 551 36,000  Level FlightAware
05:27PM 40.2440 -108.0390 280° West 478 550 36,000  Level FlightAware
05:28PM 40.2590 -108.1600 279° West 479 551 36,000  Level FlightAware
05:28PM 40.2730 -108.2740 279° West 478 550 36,000  Level FlightAware
05:29PM 40.2840 -108.3600 280° West 478 550 36,000  Level FlightAware
05:29PM 40.2970 -108.4670 279° West 479 551 36,000  Level FlightAware
05:30PM 40.3090 -108.5700 279° West 478 550 36,000  Level FlightAware
05:31PM 40.3210 -108.6650 279° West 479 551 36,000  Level FlightAware
05:31PM 40.3330 -108.7690 279° West 480 552 36,000  Level FlightAware
05:32PM 40.3500 -108.9100 279° West 480 552 36,000  Level FlightAware
05:33PM 40.3620 -109.0080 279° West 480 552 36,000  Level FlightAware
05:33PM 40.3710 -109.0900 278° West 479 551 36,000  Level FlightAware
05:34PM 40.3840 -109.2030 279° West 480 552 36,000  Level FlightAware
05:34PM 40.3940 -109.2850 279° West 480 552 36,000  Level FlightAware
05:35PM 40.4050 -109.3830 278° West 480 552 36,000  Level FlightAware
05:35PM 40.4180 -109.4970 279° West 481 554 36,000  Level FlightAware
05:36PM 40.4300 -109.6000 279° West 481 554 36,000  Level FlightAware
05:37PM 40.4410 -109.7030 278° West 481 554 36,000  Level FlightAware
05:38PM 40.4510 -109.7970 278° West 481 554 36,000  Level FlightAware
05:38PM 40.4770 -110.0270 279° West 481 554 36,000  Level FlightAware
05:39PM 40.4890 -110.1420 278° West 481 554 36,000  Level FlightAware
05:40PM 40.5004 -110.2480 278° West 482 555 36,000  Level FlightAware ADS-B
05:40PM 40.5096 -110.3350 278° West 481 554 36,000  Level FlightAware ADS-B
05:41PM 40.5188 -110.4220 278° West 478 550 36,000  Level FlightAware ADS-B
05:41PM 40.5279 -110.5090 278° West 477 549 36,000  Level FlightAware ADS-B
05:42PM 40.5369 -110.5970 278° West 477 549 36,000  Level FlightAware ADS-B
05:42PM 40.5462 -110.6870 278° West 477 549 36,000  Level FlightAware ADS-B
05:43PM 40.5551 -110.7740 278° West 477 549 36,000  Level FlightAware ADS-B
05:43PM 40.5639 -110.8610 278° West 478 550 36,000  Level FlightAware ADS-B
05:44PM 40.5726 -110.9480 278° West 478 550 36,000  Level FlightAware ADS-B
05:44PM 40.5812 -111.0340 278° West 478 550 36,000  Level FlightAware ADS-B
05:45PM 40.5897 -111.1210 277° West 479 551 36,000  Level FlightAware ADS-B
05:45PM 40.5984 -111.2090 277° West 479 551 36,000  Level FlightAware ADS-B
05:46PM 40.6070 -111.2980 277° West 480 552 36,000  Level FlightAware ADS-B
05:46PM 40.6156 -111.3880 277° West 480 552 36,000  Level FlightAware ADS-B
05:47PM 40.6241 -111.4760 277° West 480 552 36,000  Level FlightAware ADS-B
05:47PM 40.6324 -111.5640 277° West 480 552 36,000  Level FlightAware ADS-B
05:48PM 40.6407 -111.6510 277° West 480 552 36,000  Level FlightAware ADS-B
05:48PM 40.6490 -111.7400 277° West 480 552 36,000  Level FlightAware ADS-B
05:49PM 40.6571 -111.8280 277° West 479 551 36,000  Level FlightAware ADS-B
05:49PM 40.6651 -111.9150 277° West 479 551 36,000  Level FlightAware ADS-B
05:50PM 40.6730 -112.0020 277° West 478 550 36,000  Level FlightAware ADS-B
05:50PM 40.6810 -112.0910 277° West 478 550 36,000  Level FlightAware ADS-B
05:51PM 40.6894 -112.1840 277° West 479 551 36,000  Level FlightAware ADS-B
05:51PM 40.6976 -112.2770 277° West 480 552 36,000  Level FlightAware ADS-B
05:52PM 40.7053 -112.3650 277° West 481 554 36,000  Level FlightAware ADS-B
05:52PM 40.7133 -112.4570 277° West 482 555 36,000  Level FlightAware ADS-B
05:53PM 40.7170 -112.5060 276° West 482 555 36,000  Level FlightAware ADS-B
05:53PM 40.7203 -112.5970 273° West 482 555 36,000  Level FlightAware ADS-B
05:54PM 40.7212 -112.6910 271° West 482 555 36,000  Level FlightAware ADS-B
05:54PM 40.7220 -112.7790 271° West 482 555 36,000  Level FlightAware ADS-B
05:55PM 40.7227 -112.8700 271° West 481 554 36,000  Level FlightAware ADS-B
05:55PM 40.7233 -112.9600 271° West 481 554 36,000  Level FlightAware ADS-B
05:56PM 40.7239 -113.0490 271° West 482 555 36,000  Level FlightAware ADS-B
05:56PM 40.7245 -113.1430 271° West 482 555 36,000  Level FlightAware ADS-B
05:57PM 40.7249 -113.2340 270° West 482 555 36,000  Level FlightAware ADS-B
05:57PM 40.7254 -113.3470 270° West 482 555 36,000  Level FlightAware ADS-B
05:58PM 40.7257 -113.4360 270° West 481 554 36,000  Level FlightAware ADS-B
05:59PM 40.7259 -113.5430 270° West 481 554 36,000  Level FlightAware ADS-B
05:59PM 40.7260 -113.6340 270° West 482 555 36,000  Level FlightAware ADS-B
06:00PM 40.7261 -113.7250 270° West 481 554 36,000  Level FlightAware ADS-B
06:00PM 40.7260 -113.7850 270° West 481 554 36,000  Level FlightAware ADS-B
06:00PM 40.7248 -113.8280 268° West 481 554 36,000  Level FlightAware ADS-B
06:01PM 40.7209 -113.9160 267° West 480 552 36,000  Level FlightAware ADS-B
06:01PM 40.7169 -114.0030 267° West 480 552 36,000  Level FlightAware ADS-B
06:02PM 40.7132 -114.0920 267° West 481 554 36,000  Level FlightAware ADS-B
06:02PM 40.7097 -114.1810 267° West 482 555 36,000  Level FlightAware ADS-B
06:03PM 40.7063 -114.2700 267° West 482 555 36,000  Level FlightAware ADS-B
06:03PM 40.7028 -114.3580 267° West 483 556 36,000  Level FlightAware ADS-B
06:04PM 40.6988 -114.4580 267° West 483 556 36,000  Level FlightAware ADS-B
06:04PM 40.6949 -114.5520 267° West 482 555 36,000  Level FlightAware ADS-B
06:05PM 40.6911 -114.6400 267° West 480 552 36,000  Level FlightAware ADS-B
06:05PM 40.6868 -114.7330 267° West 481 554 36,000  Level FlightAware ADS-B
06:06PM 40.6827 -114.8230 267° West 482 555 36,000  Level FlightAware ADS-B
06:06PM 40.6785 -114.9120 266° West 482 555 36,000  Level FlightAware ADS-B
06:07PM 40.6743 -115.0020 267° West 479 551 36,000  Level FlightAware ADS-B
06:07PM 40.6701 -115.0880 266° West 478 550 36,000  Level FlightAware ADS-B
06:08PM 40.6658 -115.1770 266° West 480 552 36,000  Level FlightAware ADS-B
06:08PM 40.6614 -115.2660 266° West 480 552 36,000  Level FlightAware ADS-B
06:09PM 40.6567 -115.3590 266° West 479 551 36,000  Level FlightAware ADS-B
06:10PM 40.6680 -115.2550 82° East 480 552 36,000  Level FlightAware
06:12PM 40.6314 -115.8360 265° West 477 549 36,000  Level FlightAware ADS-B
06:12PM 40.6266 -115.9240 266° West 478 550 36,000  Level FlightAware ADS-B
06:13PM 40.6217 -116.0110 266° West 479 551 36,000  Level FlightAware ADS-B
06:13PM 40.6142 -116.1430 266° West 477 549 36,000  Level FlightAware ADS-B
06:14PM 40.6075 -116.2428 266° West 478 550 36,000  Level Salt Lake Center
06:15PM 40.5983 -116.4081 266° West 477 549 36,000  Level Salt Lake Center
06:16PM 40.5867 -116.6025 266° West 480 552 36,000  Level Salt Lake Center
06:17PM 40.5783 -116.7678 266° West 479 551 36,000  Level Salt Lake Center
06:18PM 40.5650 -116.9606 265° West 482 555 36,000  Level Salt Lake Center
06:19PM 40.5547 -117.1267 265° West 482 555 36,000  Level Salt Lake Center
06:25PM 40.4790 -118.1750 265° West 480 552 36,000  Level FlightAware
06:26PM 40.4730 -118.2560 264° West 480 552 36,000  Level FlightAware
06:26PM 40.4640 -118.3630 264° West 479 551 36,000  Level FlightAware
06:27PM 40.4560 -118.4660 264° West 479 551 36,000  Level FlightAware
06:28PM 40.4480 -118.5700 264° West 478 550 36,000  Level FlightAware
06:28PM 40.4410 -118.6630 264° West 478 550 36,000  Level FlightAware
06:29PM 40.4320 -118.7720 264° West 476 548 36,000  Level FlightAware
06:29PM 40.4250 -118.8590 264° West 477 549 36,000  Level FlightAware
06:30PM 40.4150 -118.9850 264° West 474 545 36,000  Level FlightAware
06:30PM 40.4060 -119.0910 264° West 477 549 36,000  Level FlightAware
06:31PM 40.3980 -119.1870 264° West 479 551 36,000  Level FlightAware
06:32PM 40.3900 -119.2860 264° West 479 551 36,000  Level FlightAware
06:32PM 40.3790 -119.4070 263° West 480 552 36,000  Level FlightAware
06:33PM 40.3700 -119.5170 264° West 481 554 36,000  Level FlightAware
06:33PM 40.3620 -119.6050 263° West 479 551 36,000  Level FlightAware
06:34PM 40.3520 -119.7130 263° West 478 550 36,000  Level FlightAware
06:35PM 40.3450 -119.8090 265° West 478 550 36,000  Level FlightAware
06:35PM 40.3410 -119.9090 267° West 480 552 36,000  Level FlightAware
06:36PM 40.3390 -120.0130 269° West 481 554 36,000  Level FlightAware
06:36PM 40.3370 -120.1060 268° West 480 552 36,000  Level FlightAware
06:37PM 40.3340 -120.2110 268° West 481 554 36,000  Level FlightAware
06:38PM 40.3320 -120.3170 269° West 480 552 36,000 240 Level FlightAware
06:38PM 40.3290 -120.4250 268° West 481 554 36,300 660 Climbing FlightAware
06:39PM 40.3270 -120.5240 269° West 478 550 36,800 840 Climbing FlightAware
06:39PM 40.3240 -120.6090 267° West 476 548 37,200 660 Climbing FlightAware
06:40PM 40.3210 -120.7230 268° West 474 545 37,600 660 Climbing FlightAware
06:40PM 40.3180 -120.8080 267° West 472 543 38,000 300 Climbing FlightAware
06:41PM 40.3150 -120.9230 268° West 471 542 38,000  Level FlightAware
06:42PM 40.3120 -121.0090 267° West 471 542 38,000  Level FlightAware
06:42PM 40.3090 -121.1210 268° West 472 543 38,000  Level FlightAware
06:43PM 40.3060 -121.2080 267° West 470 541 38,000  Level FlightAware
06:43PM 40.3030 -121.3090 268° West 470 541 38,000  Level FlightAware
06:44PM 40.2990 -121.4070 267° West 470 541 38,000  Level FlightAware
06:45PM 40.2960 -121.5070 268° West 469 540 38,000  Level FlightAware
06:45PM 40.2920 -121.6050 267° West 470 541 38,000  Level FlightAware
06:46PM 40.2890 -121.6920 267° West 470 541 38,000  Level FlightAware
06:46PM 40.2850 -121.8030 267° West 468 539 38,000  Level FlightAware
06:47PM 40.2810 -121.9010 267° West 468 539 38,000  Level FlightAware
06:47PM 40.2770 -122.0010 267° West 468 539 38,000  Level FlightAware
06:48PM 40.2730 -122.1030 267° West 468 539 38,000  Level FlightAware
06:49PM 40.2690 -122.1990 267° West 468 539 38,000  Level FlightAware
06:49PM 40.2710 -122.3000 272° West 473 544 38,000  Level FlightAware
06:50PM 40.2750 -122.4140 273° West 474 545 38,000  Level FlightAware
06:50PM 40.2780 -122.5000 273° West 475 547 38,000  Level FlightAware
06:51PM 40.2820 -122.6140 273° West 474 545 38,000  Level FlightAware
06:52PM 40.2830 -122.6850 271° West 474 545 38,000  Level FlightAware
06:52PM 40.2860 -122.8280 272° West 474 545 38,000  Level FlightAware
06:53PM 40.2880 -122.9290 272° West 473 544 38,000  Level FlightAware
06:53PM 40.2900 -123.0290 272° West 476 548 38,000  Level FlightAware
06:54PM 40.2950 -123.1320 274° West 483 556 38,000  Level FlightAware
06:55PM 40.3190 -123.2440 286° West 498 573 38,000  Level FlightAware
06:55PM 40.3480 -123.3440 291° West 496 571 38,000  Level FlightAware
06:56PM 40.3770 -123.4430 291° West 491 565 38,000  Level FlightAware
06:56PM 40.4050 -123.5440 290° West 493 567 38,000  Level FlightAware
06:57PM 40.4370 -123.6550 291° West 493 567 38,000  Level FlightAware
06:58PM 40.4700 -123.7690 291° West 493 567 38,000  Level FlightAware
06:58PM 40.4970 -123.8660 290° West 492 566 38,000  Level FlightAware
06:59PM 40.5210 -123.9480 291° West 492 566 38,000  Level FlightAware
06:59PM 40.5490 -124.0480 290° West 491 565 38,000  Level FlightAware
07:00PM 40.5690 -124.1190 290° West 491 565 38,000  Level FlightAware
07:01PM 40.5970 -124.2210 290° West 489 563 38,000  Level FlightAware
07:02PM 40.6370 -124.3680 290° West 490 564 38,000  Level FlightAware
07:02PM 40.6580 -124.4470 289° West 490 564 38,000  Level FlightAware
07:03PM 40.6910 -124.5600 291° West 488 562 38,000  Level FlightAware
07:03PM 40.7220 -124.6770 289° West 488 562 38,000  Level FlightAware
07:04PM 40.7450 -124.7680 288° West 488 562 38,000  Level FlightAware
07:05PM 40.7700 -124.8640 289° West 488 562 38,000  Level FlightAware
07:05PM 40.7930 -124.9500 289° West 488 562 38,000  Level FlightAware
07:06PM 40.8150 -125.0370 289° West 488 562 38,000  Level FlightAware
07:07PM 40.8420 -125.1370 290° West 488 562 38,000  Level FlightAware
07:07PM 40.8680 -125.2410 288° West 488 562 38,000  Level FlightAware
07:08PM 40.8930 -125.3370 289° West 488 562 38,000  Level FlightAware
07:09PM 40.9150 -125.4210 289° West 488 562 38,000  Level FlightAware
07:09PM 40.9400 -125.5170 289° West 488 562 38,000  Level FlightAware
07:10PM 40.9700 -125.6300 289° West 488 562 38,000  Level FlightAware
07:11PM 40.9960 -125.7310 289° West 488 562 38,000  Level FlightAware
07:11PM 41.0230 -125.8360 289° West 488 562 38,000  Level FlightAware
07:12PM 41.0460 -125.9230 289° West 488 562 38,000  Level FlightAware
07:13PM 41.1400 -126.2472 289° West 482 555 38,000 -60 Level Seattle Center
07:14PM 41.1819 -126.4156 288° West 482 555 37,900  Descending Seattle Center
07:15PM 41.2228 -126.5831 288° West 480 552 38,000  Climbing Seattle Center
07:16PM 41.2717 -126.7836 288° West 478 550 38,000  Level Seattle Center
07:18PM 41.3339 -127.0740 288° West  Level FlightAware Approximate
07:21PM 41.4667 -127.6500 288° West 474 545 38,000  Level Oakland Oceanic (ODAPS)
07:25PM 41.6135 -128.2556 288° West  Level FlightAware Approximate
07:26PM 41.6524 -128.4252 287° West  Level FlightAware Approximate
07:27PM 41.7011 -128.6524 287° West 474 545 38,000  Level FlightAware Transoceanic
07:28PM 41.7393 -128.8201 287° West 474 545 38,000  Level FlightAware Transoceanic
07:29PM 41.7773 -128.9881 287° West 474 545 38,000  Level FlightAware Transoceanic
07:30PM 41.8150 -129.1562 287° West 474 545 38,000  Level FlightAware Transoceanic
07:31PM 41.8525 -129.3246 287° West 474 545 38,000  Level FlightAware Transoceanic
07:32PM 41.8898 -129.4932 286° West 474 545 38,000  Level FlightAware Transoceanic
07:33PM 41.9268 -129.6619 286° West 474 545 38,000  Level FlightAware Transoceanic
07:34PM 41.9635 -129.8309 286° West 474 545 38,000  Level FlightAware Transoceanic
07:35PM 42.0000 -130.0000 281° West 474 545 38,000  Level FlightAware Transoceanic
07:35PM 41.9833 -129.9167 285° West 491 565 38,000  Level Oakland Oceanic (ODAPS)
07:36PM 42.0241 -130.1665 281° West 474 545 38,000  Level FlightAware Transoceanic
07:36PM 42.0000 -130.0000 281° West 469 540 38,000  Level Oakland Oceanic (ODAPS)
07:37PM 42.0480 -130.3331 281° West 474 545 38,000  Level FlightAware Transoceanic
07:37PM 42.0667 -130.4500 281° West 470 541 38,000  Level Oakland Oceanic (ODAPS)
07:38PM 42.0716 -130.4998 281° West 474 545 38,000  Level FlightAware Transoceanic
07:38PM 42.0833 -130.5333 281° West 470 541 38,000  Level Oakland Oceanic (ODAPS)
07:39PM 42.0950 -130.6667 281° West 474 545 38,000  Level FlightAware Transoceanic
07:40PM 42.1182 -130.8337 281° West 474 545 38,000  Level FlightAware Transoceanic
07:41PM 42.1411 -131.0008 280° West 474 545 38,000  Level FlightAware Transoceanic
07:42PM 42.1693 -131.2091 280° West 469 540 38,000  Level FlightAware Transoceanic
07:43PM 42.1924 -131.3824 280° West 469 540 38,000  Level FlightAware Transoceanic
07:44PM 42.2234 -131.5701 280° West 470 541 38,000  Level FlightAware Transoceanic
07:45PM 42.2458 -131.7433 280° West 470 541 38,000  Level FlightAware Transoceanic
07:46PM 42.2680 -131.9166 280° West 470 541 38,000  Level FlightAware Transoceanic
07:47PM 42.2899 -132.0901 280° West 470 541 38,000  Level FlightAware Transoceanic
07:48PM 42.3115 -132.2637 280° West 470 541 38,000  Level FlightAware Transoceanic
07:49PM 42.3329 -132.4374 279° West 470 541 38,000  Level FlightAware Transoceanic
07:49PM 42.3333 -132.4167 279° West 473 544 38,000  Level Oakland Oceanic (ODAPS)
07:50PM 42.3540 -132.6112 279° West 470 541 38,000  Level FlightAware Transoceanic
07:51PM 42.3749 -132.7852 279° West 470 541 38,000  Level FlightAware Transoceanic
07:52PM 42.3955 -132.9592 279° West 470 541 38,000  Level FlightAware Transoceanic
07:53PM 42.4159 -133.1334 279° West 470 541 38,000  Level FlightAware Transoceanic
07:54PM 42.4359 -133.3077 279° West 470 541 38,000  Level FlightAware Transoceanic
07:55PM 42.4562 -133.4642 279° West 473 544 38,000  Level FlightAware Transoceanic
07:56PM 42.4758 -133.6392 279° West 473 544 38,000  Level FlightAware Transoceanic
07:57PM 42.4951 -133.8143 278° West 473 544 38,000  Level FlightAware Transoceanic
07:58PM 42.5141 -133.9895 278° West 473 544 38,000  Level FlightAware Transoceanic
07:59PM 42.5329 -134.1648 278° West 473 544 38,000  Level FlightAware Transoceanic
08:00PM 42.5513 -134.3402 278° West 473 544 38,000  Level FlightAware Transoceanic
08:01PM 42.5696 -134.5157 278° West 473 544 38,000  Level FlightAware Transoceanic
08:02PM 42.5875 -134.6913 278° West 473 544 38,000  Level FlightAware Transoceanic
08:03PM 42.6052 -134.8671 278° West 473 544 38,000  Level FlightAware Transoceanic
08:03PM 42.6000 -134.8667 278° West 469 540 38,000  Level Oakland Oceanic (ODAPS)
08:04PM 42.6226 -135.0429 278° West 473 544 38,000  Level FlightAware Transoceanic
08:05PM 42.6398 -135.2188 277° West 473 544 38,000  Level FlightAware Transoceanic
08:06PM 42.6566 -135.3948 277° West 473 544 38,000  Level FlightAware Transoceanic
08:07PM 42.6732 -135.5709 277° West 473 544 38,000  Level FlightAware Transoceanic
08:08PM 42.6896 -135.7471 277° West 473 544 38,000  Level FlightAware Transoceanic
08:09PM 42.7015 -135.9230 277° West 469 540 38,000  Level FlightAware Transoceanic
08:10PM 42.7175 -136.0994 277° West 469 540 38,000  Level FlightAware Transoceanic
08:11PM 42.7332 -136.2759 277° West 469 540 38,000  Level FlightAware Transoceanic
08:12PM 42.7486 -136.4524 277° West 469 540 38,000  Level FlightAware Transoceanic
08:13PM 42.7638 -136.6291 277° West 469 540 38,000  Level FlightAware Transoceanic
08:14PM 42.7787 -136.8058 276° West 469 540 38,000  Level FlightAware Transoceanic
08:15PM 42.7933 -136.9826 276° West 469 540 38,000  Level FlightAware Transoceanic
08:16PM 42.8077 -137.1595 276° West 469 540 38,000  Level FlightAware Transoceanic
08:17PM 42.8217 -137.3365 276° West 469 540 38,000  Level FlightAware Transoceanic
08:17PM 42.8167 -137.2833 276° West 461 531 38,000  Level Oakland Oceanic (ODAPS)
08:18PM 42.8355 -137.5136 276° West 469 540 38,000  Level FlightAware Transoceanic
08:19PM 42.8491 -137.6907 276° West 469 540 38,000  Level FlightAware Transoceanic
08:20PM 42.8623 -137.8679 276° West 469 540 38,000  Level FlightAware Transoceanic
08:21PM 42.8753 -138.0452 276° West 469 540 38,000  Level FlightAware Transoceanic
08:22PM 42.8880 -138.2226 276° West 469 540 38,000  Level FlightAware Transoceanic
08:23PM 42.8929 -138.3002 275° West 461 531 38,000  Level FlightAware Transoceanic
08:24PM 42.9048 -138.4699 275° West 461 531 38,000  Level FlightAware Transoceanic
08:25PM 42.9164 -138.6396 275° West 461 531 38,000  Level FlightAware Transoceanic
08:26PM 42.9277 -138.8095 275° West 461 531 38,000  Level FlightAware Transoceanic
08:27PM 42.9388 -138.9794 275° West 461 531 38,000  Level FlightAware Transoceanic
08:28PM 42.9496 -139.1493 275° West 461 531 38,000  Level FlightAware Transoceanic
08:29PM 42.9602 -139.3194 275° West 461 531 38,000  Level FlightAware Transoceanic
08:30PM 42.9705 -139.4894 275° West 461 531 38,000  Level FlightAware Transoceanic
08:30PM 42.9833 -139.6500 274° West 444 511 38,000  Level Oakland Oceanic (ODAPS)
08:31PM 42.9806 -139.6596 275° West 461 531 38,000  Level FlightAware Transoceanic
08:32PM 42.9904 -139.8298 274° West 461 531 38,000  Level FlightAware Transoceanic
08:33PM 43.0000 -140.0000 266° West 461 531 38,000  Level FlightAware Transoceanic
08:33PM 43.0000 -140.0000 266° West 461 531 38,000  Level Oakland Oceanic (ODAPS)
08:34PM 42.9902 -140.1748 266° West 461 531 38,000  Level FlightAware Transoceanic
08:35PM 42.9801 -140.3495 265° West 461 531 38,000  Level FlightAware Transoceanic
08:36PM 42.9698 -140.5241 265° West 461 531 38,000  Level FlightAware Transoceanic
08:37PM 42.9592 -140.6987 265° West 444 511 38,000  Level FlightAware Transoceanic
08:38PM 42.9484 -140.8733 265° West 444 511 38,000  Level FlightAware Transoceanic
08:39PM 42.9372 -141.0477 265° West 461 531 38,000  Level FlightAware Transoceanic
08:40PM 42.9259 -141.2221 265° West 461 531 38,000  Level FlightAware Transoceanic
08:41PM 42.9142 -141.3965 265° West 461 531 38,000  Level FlightAware Transoceanic
08:42PM 42.9023 -141.5708 265° West 461 531 38,000  Level FlightAware Transoceanic
08:43PM 42.8901 -141.7450 264° West 461 531 38,000  Level FlightAware Transoceanic
08:44PM 42.8777 -141.9191 264° West 461 531 38,000  Level FlightAware Transoceanic
08:44PM 42.8667 -142.0333 264° West 461 531 38,000  Level Oakland Oceanic (ODAPS)
08:45PM 42.8650 -142.0932 264° West 461 531 38,000  Level FlightAware Transoceanic
08:46PM 42.8520 -142.2672 264° West 461 531 38,000  Level FlightAware Transoceanic
08:47PM 42.8388 -142.4411 264° West 461 531 38,000  Level FlightAware Transoceanic
08:48PM 42.8253 -142.6149 264° West 461 531 38,000  Level FlightAware Transoceanic
08:49PM 42.8115 -142.7887 264° West 461 531 38,000  Level FlightAware Transoceanic
08:50PM 42.7994 -142.9091 264° West 461 531 38,000  Level FlightAware Transoceanic
08:51PM 42.7851 -143.0841 264° West 461 531 38,000  Level FlightAware Transoceanic
08:52PM 42.7706 -143.2589 263° West 461 531 38,000  Level FlightAware Transoceanic
08:53PM 42.7558 -143.4337 263° West 461 531 38,000  Level FlightAware Transoceanic
08:54PM 42.7408 -143.6084 263° West 461 531 38,000  Level FlightAware Transoceanic
08:55PM 42.7255 -143.7829 263° West 461 531 38,000  Level FlightAware Transoceanic
08:56PM 42.7099 -143.9575 263° West 461 531 38,000  Level FlightAware Transoceanic
08:57PM 42.6940 -144.1319 263° West 461 531 38,000  Level FlightAware Transoceanic
08:58PM 42.6779 -144.3062 263° West 461 531 38,000  Level FlightAware Transoceanic
08:58PM 42.6667 -144.4167 263° West 458 527 38,000  Level Oakland Oceanic (ODAPS)
08:59PM 42.6616 -144.4804 263° West 461 531 38,000  Level FlightAware Transoceanic
09:00PM 42.6449 -144.6546 263° West 461 531 38,000  Level FlightAware Transoceanic
09:01PM 42.6280 -144.8286 262° West 461 531 38,000  Level FlightAware Transoceanic
09:02PM 42.6109 -145.0026 262° West 461 531 38,000  Level FlightAware Transoceanic
09:03PM 42.5934 -145.1765 262° West 461 531 38,000  Level FlightAware Transoceanic
09:04PM 42.5657 -145.4403 262° West 458 527 38,000  Level FlightAware Transoceanic
09:05PM 42.5480 -145.6106 262° West 458 527 38,000  Level FlightAware Transoceanic
09:06PM 42.5300 -145.7807 262° West 458 527 38,000  Level FlightAware Transoceanic
09:07PM 42.5118 -145.9508 262° West 458 527 38,000  Level FlightAware Transoceanic
09:08PM 42.4933 -146.1208 262° West 458 527 38,000  Level FlightAware Transoceanic
09:09PM 42.4746 -146.2907 261° West 458 527 38,000  Level FlightAware Transoceanic
09:10PM 42.4557 -146.4604 261° West 458 527 38,000  Level FlightAware Transoceanic
09:11PM 42.4364 -146.6301 261° West 458 527 38,000  Level FlightAware Transoceanic
09:12PM 42.4170 -146.7997 261° West 458 527 38,000  Level FlightAware Transoceanic
09:12PM 42.4333 -146.7500 261° West 444 511 38,000  Level Oakland Oceanic (ODAPS)
09:13PM 42.3973 -146.9691 261° West 458 527 38,000  Level FlightAware Transoceanic
09:14PM 42.3773 -147.1385 261° West 458 527 38,000  Level FlightAware Transoceanic
09:15PM 42.3571 -147.3078 261° West 458 527 38,000  Level FlightAware Transoceanic
09:16PM 42.3366 -147.4769 261° West 458 527 38,000  Level FlightAware Transoceanic
09:17PM 42.3159 -147.6459 261° West 458 527 38,000  Level FlightAware Transoceanic
09:18PM 42.3130 -147.7296 260° West 444 511 38,000  Level FlightAware Transoceanic
09:19PM 42.2921 -147.8925 260° West 444 511 38,000  Level FlightAware Transoceanic
09:20PM 42.2710 -148.0553 260° West 444 511 38,000  Level FlightAware Transoceanic
09:21PM 42.2497 -148.2180 260° West 444 511 38,000  Level FlightAware Transoceanic
09:22PM 42.2281 -148.3806 260° West 444 511 38,000  Level FlightAware Transoceanic
09:23PM 42.2063 -148.5430 260° West 444 511 38,000  Level FlightAware Transoceanic
09:24PM 42.1843 -148.7054 260° West 444 511 38,000  Level FlightAware Transoceanic
09:25PM 42.1621 -148.8676 259° West 444 511 38,000  Level FlightAware Transoceanic
09:26PM 42.1396 -149.0297 259° West 444 511 38,000  Level FlightAware Transoceanic
09:26PM 42.1333 -149.0333 260° West 449 517 38,000  Level Oakland Oceanic (ODAPS)
09:27PM 42.1169 -149.1918 259° West 444 511 38,000  Level FlightAware Transoceanic
09:28PM 42.0940 -149.3536 259° West 444 511 38,000  Level FlightAware Transoceanic
09:29PM 42.0708 -149.5154 259° West 444 511 38,000  Level FlightAware Transoceanic
09:30PM 42.0475 -149.6771 259° West 444 511 38,000  Level FlightAware Transoceanic
09:31PM 42.0238 -149.8386 259° West 444 511 38,000  Level FlightAware Transoceanic
09:32PM 42.0000 -150.0000 266° West 449 517 38,000  Level FlightAware Transoceanic
09:32PM 42.0000 -150.0000 266° West 455 524 38,000  Level Oakland Oceanic (ODAPS)
09:33PM 41.9902 -150.1747 266° West 449 517 38,000  Level FlightAware Transoceanic
09:34PM 41.9801 -150.3493 265° West 449 517 38,000  Level FlightAware Transoceanic
09:35PM 41.9697 -150.5239 265° West 449 517 38,000  Level FlightAware Transoceanic
09:36PM 41.9591 -150.6984 265° West 449 517 38,000  Level FlightAware Transoceanic
09:37PM 41.9482 -150.8729 265° West 449 517 38,000  Level FlightAware Transoceanic
09:38PM 41.9394 -151.0124 265° West 455 524 38,000  Level FlightAware Transoceanic
09:39PM 41.9284 -151.1809 265° West 455 524 38,000  Level FlightAware Transoceanic
09:40PM 41.9172 -151.3494 265° West 455 524 38,000  Level FlightAware Transoceanic
09:40PM 41.9167 -151.3500 265° West 457 526 38,000  Level Oakland Oceanic (ODAPS)
09:41PM 41.9057 -151.5179 265° West 455 524 38,000  Level FlightAware Transoceanic
09:42PM 41.8940 -151.6862 265° West 455 524 38,000  Level FlightAware Transoceanic
09:43PM 41.8820 -151.8545 264° West 455 524 38,000  Level FlightAware Transoceanic
09:44PM 41.8698 -152.0227 264° West 455 524 38,000  Level FlightAware Transoceanic
09:45PM 41.8574 -152.1909 264° West 455 524 38,000  Level FlightAware Transoceanic
09:46PM 41.8442 -152.3595 264° West 457 526 38,000  Level FlightAware Transoceanic
09:47PM 41.8313 -152.5275 264° West 457 526 38,000  Level FlightAware Transoceanic
09:48PM 41.8181 -152.6955 264° West 457 526 38,000  Level FlightAware Transoceanic
09:49PM 41.8047 -152.8634 264° West 457 526 38,000  Level FlightAware Transoceanic
09:50PM 41.7911 -153.0312 264° West 457 526 38,000  Level FlightAware Transoceanic
09:51PM 41.7771 -153.1989 264° West 457 526 38,000  Level FlightAware Transoceanic
09:52PM 41.7630 -153.3666 263° West 457 526 38,000  Level FlightAware Transoceanic
09:53PM 41.7486 -153.5342 263° West 457 526 38,000  Level FlightAware Transoceanic
09:54PM 41.7340 -153.7017 263° West 457 526 38,000 1,800 Level FlightAware Transoceanic
09:54PM 41.7333 -153.6667 263° West 464 534 40,000  Climbing Oakland Oceanic (ODAPS)
09:55PM 41.7191 -153.8692 263° West 457 526 38,000 -1,080 Descending FlightAware Transoceanic
09:56PM 41.7040 -154.0365 263° West 457 526 38,000  Level FlightAware Transoceanic
09:57PM 41.6886 -154.2038 263° West 457 526 38,000  Level FlightAware Transoceanic
09:58PM 41.6730 -154.3710 263° West 457 526 38,000  Level FlightAware Transoceanic
09:59PM 41.6571 -154.5381 263° West 457 526 38,000 960 Level FlightAware Transoceanic
10:00PM 41.6381 -154.7029 263° West 464 534 40,000 960 Climbing FlightAware Transoceanic
10:01PM 41.6214 -154.8753 263° West 464 534 40,000  Level FlightAware Transoceanic
10:02PM 41.6043 -155.0477 262° West 464 534 40,000  Level FlightAware Transoceanic
10:03PM 41.5871 -155.2199 262° West 464 534 40,000  Level FlightAware Transoceanic
10:04PM 41.5695 -155.3920 262° West 464 534 40,000  Level FlightAware Transoceanic
10:05PM 41.5517 -155.5640 262° West 464 534 40,000  Level FlightAware Transoceanic
10:06PM 41.5337 -155.7360 262° West 464 534 40,000  Level FlightAware Transoceanic
10:07PM 41.5154 -155.9078 262° West 464 534 40,000  Level FlightAware Transoceanic
10:07PM 41.5000 -156.0500 262° West 473 544 40,000  Level Oakland Oceanic (ODAPS)
10:08PM 41.4968 -156.0796 262° West 464 534 40,000  Level FlightAware Transoceanic
10:09PM 41.4780 -156.2512 262° West 464 534 40,000  Level FlightAware Transoceanic
10:10PM 41.4589 -156.4228 262° West 464 534 40,000  Level FlightAware Transoceanic
10:11PM 41.4396 -156.5942 261° West 464 534 40,000  Level FlightAware Transoceanic
10:12PM 41.4200 -156.7656 261° West 464 534 40,000  Level FlightAware Transoceanic
10:13PM 41.4001 -156.9368 261° West 464 534 40,000  Level FlightAware Transoceanic
10:14PM 41.3826 -157.0862 261° West 473 544 40,000  Level FlightAware Transoceanic
10:15PM 41.3621 -157.2585 261° West 473 544 40,000  Level FlightAware Transoceanic
10:16PM 41.3414 -157.4307 261° West 473 544 40,000  Level FlightAware Transoceanic
10:17PM 41.3204 -157.6028 261° West 473 544 40,000  Level FlightAware Transoceanic
10:18PM 41.2992 -157.7748 261° West 473 544 40,000  Level FlightAware Transoceanic
10:19PM 41.2777 -157.9467 260° West 473 544 40,000  Level FlightAware Transoceanic
10:20PM 41.2560 -158.1184 260° West 473 544 40,000  Level FlightAware Transoceanic
10:21PM 41.2340 -158.2901 260° West 473 544 40,000  Level FlightAware Transoceanic
10:21PM 41.2167 -158.4833 260° West 485 558 40,000  Level Oakland Oceanic (ODAPS)
10:22PM 41.2117 -158.4616 260° West 473 544 40,000  Level FlightAware Transoceanic
10:23PM 41.1892 -158.6330 260° West 473 544 40,000  Level FlightAware Transoceanic
10:24PM 41.1664 -158.8043 260° West 473 544 40,000  Level FlightAware Transoceanic
10:25PM 41.1434 -158.9755 260° West 473 544 40,000  Level FlightAware Transoceanic
10:26PM 41.1202 -159.1466 260° West 473 544 40,000  Level FlightAware Transoceanic
10:27PM 41.0966 -159.3175 260° West 473 544 40,000  Level FlightAware Transoceanic
10:28PM 41.0560 -159.6218 259° West 485 558 40,000  Level FlightAware Transoceanic
10:29PM 41.0282 -159.8110 259° West 485 558 40,000  Level FlightAware Transoceanic
10:30PM 41.0000 -160.0000 259° West 485 558 40,000  Level FlightAware Transoceanic
10:30PM 41.0000 -160.0000 259° West 489 563 40,000  Level Oakland Oceanic (ODAPS)
10:31PM 40.9729 -160.1771 259° West 485 558 40,000  Level FlightAware Transoceanic
10:32PM 40.9456 -160.3541 258° West 485 558 40,000  Level FlightAware Transoceanic
10:33PM 40.9180 -160.5309 258° West 485 558 40,000  Level FlightAware Transoceanic
10:34PM 40.8902 -160.7076 258° West 485 558 40,000  Level FlightAware Transoceanic
10:35PM 40.8621 -160.8842 258° West 485 558 40,000  Level FlightAware Transoceanic
10:35PM 40.8500 -160.9500 258° West 496 571 40,000  Level Oakland Oceanic (ODAPS)
10:36PM 40.8366 -161.0426 258° West 489 563 40,000  Level FlightAware Transoceanic
10:37PM 40.8084 -161.2159 258° West 489 563 40,000  Level FlightAware Transoceanic
10:38PM 40.7800 -161.3890 258° West 489 563 40,000  Level FlightAware Transoceanic
10:39PM 40.7514 -161.5620 258° West 489 563 40,000  Level FlightAware Transoceanic
10:40PM 40.7224 -161.7348 257° West 489 563 40,000  Level FlightAware Transoceanic
10:41PM 40.6932 -161.9075 257° West 489 563 40,000  Level FlightAware Transoceanic
10:42PM 40.6730 -162.0184 257° West 496 571 40,000  Level FlightAware Transoceanic
10:43PM 40.6426 -162.1959 257° West 496 571 40,000  Level FlightAware Transoceanic
10:44PM 40.6119 -162.3732 257° West 496 571 40,000  Level FlightAware Transoceanic
10:45PM 40.5809 -162.5504 257° West 496 571 40,000  Level FlightAware Transoceanic
10:46PM 40.5496 -162.7274 257° West 496 571 40,000  Level FlightAware Transoceanic
10:47PM 40.5181 -162.9042 257° West 496 571 40,000  Level FlightAware Transoceanic
10:48PM 40.4863 -163.0809 257° West 496 571 40,000  Level FlightAware Transoceanic
10:49PM 40.4542 -163.2574 257° West 496 571 40,000  Level FlightAware Transoceanic
10:49PM 40.4333 -163.4000 256° West 495 570 40,000  Level Oakland Oceanic (ODAPS)
10:50PM 40.4218 -163.4337 256° West 496 571 40,000  Level FlightAware Transoceanic
10:51PM 40.3892 -163.6099 256° West 496 571 40,000  Level FlightAware Transoceanic
10:52PM 40.3564 -163.7859 256° West 496 571 40,000  Level FlightAware Transoceanic
10:53PM 40.3232 -163.9617 256° West 496 571 40,000  Level FlightAware Transoceanic
10:54PM 40.2898 -164.1374 256° West 496 571 40,000  Level FlightAware Transoceanic
10:55PM 40.2374 -164.4329 256° West 495 570 40,000  Level FlightAware Transoceanic
10:56PM 40.2039 -164.6045 256° West 495 570 40,000  Level FlightAware Transoceanic
10:57PM 40.1701 -164.7758 255° West 495 570 40,000  Level FlightAware Transoceanic
10:58PM 40.1360 -164.9471 255° West 495 570 40,000  Level FlightAware Transoceanic
10:59PM 40.1017 -165.1181 255° West 495 570 40,000  Level FlightAware Transoceanic
11:00PM 40.0672 -165.2890 255° West 495 570 40,000  Level FlightAware Transoceanic
11:01PM 40.0324 -165.4597 255° West 495 570 40,000  Level FlightAware Transoceanic
11:02PM 39.9973 -165.6302 255° West 495 570 40,000  Level FlightAware Transoceanic
11:03PM 39.9620 -165.8006 255° West 495 570 40,000  Level FlightAware Transoceanic
11:03PM 39.9500 -165.8167 255° West 499 574 40,000  Level Oakland Oceanic (ODAPS)
11:04PM 39.9265 -165.9707 255° West 495 570 40,000  Level FlightAware Transoceanic
11:05PM 39.8907 -166.1407 255° West 495 570 40,000  Level FlightAware Transoceanic
11:06PM 39.8546 -166.3106 254° West 495 570 40,000  Level FlightAware Transoceanic
11:07PM 39.8183 -166.4802 254° West 495 570 40,000  Level FlightAware Transoceanic
11:08PM 39.7818 -166.6497 254° West 495 570 40,000  Level FlightAware Transoceanic
11:09PM 39.7357 -166.8310 254° West 499 574 40,000  Level FlightAware Transoceanic
11:10PM 39.6992 -166.9994 254° West 499 574 40,000  Level FlightAware Transoceanic
11:11PM 39.6624 -167.1677 254° West 499 574 40,000  Level FlightAware Transoceanic
11:12PM 39.6253 -167.3358 254° West 499 574 40,000  Level FlightAware Transoceanic
11:13PM 39.5880 -167.5037 254° West 499 574 40,000  Level FlightAware Transoceanic
11:14PM 39.5505 -167.6714 254° West 499 574 40,000  Level FlightAware Transoceanic
11:15PM 39.5127 -167.8389 254° West 499 574 40,000  Level FlightAware Transoceanic
11:16PM 39.4747 -168.0063 254° West 499 574 40,000  Level FlightAware Transoceanic
11:17PM 39.4365 -168.1734 253° West 499 574 40,000  Level FlightAware Transoceanic
11:17PM 39.4333 -168.2167 253° West 499 574 40,000  Level Oakland Oceanic (ODAPS)
11:18PM 39.3979 -168.3404 253° West 499 574 40,000  Level FlightAware Transoceanic
11:19PM 39.3592 -168.5072 253° West 499 574 40,000  Level FlightAware Transoceanic
11:20PM 39.3203 -168.6738 253° West 499 574 40,000  Level FlightAware Transoceanic
11:21PM 39.2810 -168.8403 253° West 499 574 40,000  Level FlightAware Transoceanic
11:22PM 39.2416 -169.0065 253° West 499 574 40,000  Level FlightAware Transoceanic
11:23PM 39.2003 -169.1921 253° West 499 574 40,000  Level FlightAware Transoceanic
11:24PM 39.1607 -169.3541 252° West 499 574 40,000  Level FlightAware Transoceanic
11:25PM 39.1209 -169.5158 252° West 499 574 40,000  Level FlightAware Transoceanic
11:26PM 39.0808 -169.6774 252° West 499 574 40,000  Level FlightAware Transoceanic
11:27PM 39.0405 -169.8388 252° West 499 574 40,000  Level FlightAware Transoceanic
11:27PM 39.0000 -170.0000 259° West 494 568 40,000  Level Oakland Oceanic (ODAPS)
11:28PM 39.0000 -170.0000 259° West 499 574 40,000  Level FlightAware Transoceanic
11:29PM 38.9733 -170.1738 259° West 499 574 40,000  Level FlightAware Transoceanic
11:30PM 38.9464 -170.3475 259° West 499 574 40,000  Level FlightAware Transoceanic
11:31PM 38.9191 -170.5210 259° West 499 574 40,000  Level FlightAware Transoceanic
11:31PM 38.9000 -170.6000 259° West 492 566 40,000  Level Oakland Oceanic (ODAPS)
11:32PM 38.8917 -170.6944 258° West 499 574 40,000  Level FlightAware Transoceanic
11:33PM 38.8640 -170.8677 258° West 499 574 40,000  Level FlightAware Transoceanic
11:34PM 38.8360 -171.0409 258° West 494 568 40,000  Level FlightAware Transoceanic
11:35PM 38.8078 -171.2139 258° West 494 568 40,000  Level FlightAware Transoceanic
11:36PM 38.7793 -171.3867 258° West 494 568 40,000  Level FlightAware Transoceanic
11:37PM 38.7328 -171.6296 258° West 492 566 40,000  Level FlightAware Transoceanic
11:38PM 38.7040 -171.8007 258° West 492 566 40,000  Level FlightAware Transoceanic
11:39PM 38.6751 -171.9717 258° West 492 566 40,000  Level FlightAware Transoceanic
11:40PM 38.6458 -172.1425 258° West 492 566 40,000  Level FlightAware Transoceanic
11:41PM 38.6163 -172.3132 257° West 492 566 40,000  Level FlightAware Transoceanic
11:42PM 38.5866 -172.4838 257° West 492 566 40,000  Level FlightAware Transoceanic
11:43PM 38.5566 -172.6542 257° West 492 566 40,000  Level FlightAware Transoceanic
11:44PM 38.5264 -172.8245 257° West 492 566 40,000  Level FlightAware Transoceanic
11:45PM 38.4959 -172.9946 257° West 492 566 40,000  Level FlightAware Transoceanic
11:45PM 38.5000 -172.9667 257° West 487 560 40,000  Level Oakland Oceanic (ODAPS)
11:46PM 38.4652 -173.1646 257° West 492 566 40,000  Level FlightAware Transoceanic
11:47PM 38.4342 -173.3344 257° West 492 566 40,000  Level FlightAware Transoceanic
11:48PM 38.4030 -173.5041 257° West 492 566 40,000  Level FlightAware Transoceanic
11:49PM 38.3715 -173.6737 257° West 492 566 40,000  Level FlightAware Transoceanic
11:50PM 38.3398 -173.8431 257° West 492 566 40,000  Level FlightAware Transoceanic
11:51PM 38.3161 -173.9648 256° West 487 560 40,000  Level FlightAware Transoceanic
11:52PM 38.2846 -174.1307 256° West 487 560 40,000  Level FlightAware Transoceanic
11:53PM 38.2529 -174.2964 256° West 487 560 40,000  Level FlightAware Transoceanic
11:54PM 38.2210 -174.4619 256° West 487 560 40,000  Level FlightAware Transoceanic
11:55PM 38.1888 -174.6274 256° West 487 560 40,000  Level FlightAware Transoceanic
11:56PM 38.1564 -174.7926 256° West 487 560 40,000  Level FlightAware Transoceanic
11:57PM 38.1238 -174.9578 256° West 487 560 40,000  Level FlightAware Transoceanic
11:58PM 38.0909 -175.1228 256° West 487 560 40,000  Level FlightAware Transoceanic
11:58PM 38.0667 -175.2667 256° West 484 557 40,000  Level Oakland Oceanic (ODAPS)
11:59PM 38.0578 -175.2876 256° West 487 560 40,000  Level FlightAware Transoceanic
12:00AM 38.0245 -175.4523 256° West 487 560 40,000  Level FlightAware Transoceanic
12:01AM 37.9909 -175.6168 255° West 487 560 40,000  Level FlightAware Transoceanic
12:02AM 37.9571 -175.7812 255° West 487 560 40,000  Level FlightAware Transoceanic
12:03AM 37.9231 -175.9454 255° West 487 560 40,000  Level FlightAware Transoceanic
12:04AM 37.8889 -176.1095 255° West 487 560 40,000  Level FlightAware Transoceanic
12:05AM 37.8616 -176.2570 255° West 484 557 40,000  Level FlightAware Transoceanic
12:06AM 37.8266 -176.4215 255° West 484 557 40,000  Level FlightAware Transoceanic
12:07AM 37.7914 -176.5858 255° West 484 557 40,000  Level FlightAware Transoceanic
12:08AM 37.7559 -176.7500 255° West 484 557 40,000  Level FlightAware Transoceanic
12:09AM 37.7203 -176.9141 255° West 484 557 40,000  Level FlightAware Transoceanic
12:10AM 37.6844 -177.0780 254° West 484 557 40,000  Level FlightAware Transoceanic
12:11AM 37.6483 -177.2417 254° West 484 557 40,000  Level FlightAware Transoceanic
12:12AM 37.6119 -177.4052 254° West 484 557 40,000  Level FlightAware Transoceanic
12:12AM 37.5833 -177.5167 254° West 476 548 40,000  Level Oakland Oceanic (ODAPS)
12:13AM 37.5753 -177.5686 254° West 484 557 40,000  Level FlightAware Transoceanic
12:14AM 37.5385 -177.7319 254° West 484 557 40,000  Level FlightAware Transoceanic
12:15AM 37.5015 -177.8949 254° West 484 557 40,000  Level FlightAware Transoceanic
12:16AM 37.4642 -178.0579 254° West 484 557 40,000  Level FlightAware Transoceanic
12:17AM 37.4268 -178.2206 254° West 484 557 40,000  Level FlightAware Transoceanic
12:18AM 37.3947 -178.3487 254° West 476 548 40,000  Level FlightAware Transoceanic
12:19AM 37.3562 -178.5146 254° West 476 548 40,000  Level FlightAware Transoceanic
12:20AM 37.3176 -178.6803 254° West 476 548 40,000  Level FlightAware Transoceanic
12:21AM 37.2787 -178.8459 253° West 476 548 40,000  Level FlightAware Transoceanic
12:22AM 37.2396 -179.0113 253° West 476 548 40,000  Level FlightAware Transoceanic
12:23AM 37.2002 -179.1765 253° West 476 548 40,000  Level FlightAware Transoceanic
12:24AM 37.1606 -179.3416 253° West 476 548 40,000  Level FlightAware Transoceanic
12:25AM 37.1208 -179.5064 253° West 476 548 40,000  Level FlightAware Transoceanic
12:26AM 37.0808 -179.6711 253° West 476 548 40,000  Level FlightAware Transoceanic
12:26AM 37.0667 -179.7167 254° West 475 547 40,000  Level Oakland Oceanic (ODAPS)
12:27AM 37.0405 -179.8356 253° West 476 548 40,000  Level FlightAware Transoceanic
12:28AM 37.0000 -180.0000 266° West 476 548 40,000  Level FlightAware Transoceanic
12:28AM 37.0000 180.0000 266° West 479 551 40,000  Level Oakland Oceanic (ODAPS)
12:29AM 36.9902 179.8315 266° West 476 548 40,000  Level FlightAware Transoceanic
12:30AM 36.9803 179.6630 266° West 476 548 40,000  Level FlightAware Transoceanic
12:31AM 36.9700 179.4946 266° West 476 548 40,000  Level FlightAware Transoceanic
12:32AM 36.9596 179.3262 266° West 475 547 40,000  Level FlightAware Transoceanic
12:33AM 36.9488 179.1579 265° West 475 547 40,000  Level FlightAware Transoceanic
12:34AM 36.9390 179.0061 265° West 479 551 40,000  Level FlightAware Transoceanic
12:35AM 36.9280 178.8406 265° West 479 551 40,000  Level FlightAware Transoceanic
12:36AM 36.9168 178.6752 265° West 479 551 40,000  Level FlightAware Transoceanic
12:37AM 36.9054 178.5098 265° West 479 551 40,000  Level FlightAware Transoceanic
12:38AM 36.8937 178.3445 265° West 479 551 40,000  Level FlightAware Transoceanic
12:39AM 36.8818 178.1792 265° West 479 551 40,000  Level FlightAware Transoceanic
12:40AM 36.8697 178.0140 265° West 479 551 40,000  Level FlightAware Transoceanic
12:40AM 36.8667 178.0333 265° West 477 549 40,000  Level Oakland Oceanic (ODAPS)
12:41AM 36.8574 177.8488 265° West 479 551 40,000  Level FlightAware Transoceanic
12:42AM 36.8448 177.6837 265° West 479 551 40,000  Level FlightAware Transoceanic
12:43AM 36.8320 177.5186 264° West 479 551 40,000  Level FlightAware Transoceanic
12:44AM 36.8190 177.3536 264° West 479 551 40,000  Level FlightAware Transoceanic
12:45AM 36.8057 177.1886 264° West 479 551 40,000  Level FlightAware Transoceanic
12:46AM 36.7913 177.0605 264° West 477 549 40,000  Level FlightAware Transoceanic
12:47AM 36.7780 176.8986 264° West 477 549 40,000  Level FlightAware Transoceanic
12:48AM 36.7644 176.7367 264° West 477 549 40,000  Level FlightAware Transoceanic
12:49AM 36.7506 176.5749 264° West 477 549 40,000  Level FlightAware Transoceanic
12:50AM 36.7367 176.4131 264° West 477 549 40,000  Level FlightAware Transoceanic
12:51AM 36.7225 176.2514 264° West 477 549 40,000  Level FlightAware Transoceanic
12:52AM 36.7080 176.0898 264° West 477 549 40,000  Level FlightAware Transoceanic
12:53AM 36.6934 175.9282 264° West 477 549 40,000  Level FlightAware Transoceanic
12:54AM 36.6785 175.7666 263° West 477 549 40,000  Level FlightAware Transoceanic
12:54AM 36.6833 175.7667 263° West 478 550 40,000  Level Oakland Oceanic (ODAPS)
12:55AM 36.6634 175.6052 263° West 477 549 40,000  Level FlightAware Transoceanic
12:56AM 36.6481 175.4438 263° West 477 549 40,000  Level FlightAware Transoceanic
12:57AM 36.6326 175.2825 263° West 477 549 40,000  Level FlightAware Transoceanic
12:58AM 36.6169 175.1212 263° West 477 549 40,000  Level FlightAware Transoceanic
12:59AM 36.6009 174.9600 263° West 477 549 40,000  Level FlightAware Transoceanic
01:00AM 36.5888 174.7988 263° West 478 550 40,000  Level FlightAware Transoceanic
01:01AM 36.5723 174.6377 263° West 478 550 40,000  Level FlightAware Transoceanic
01:02AM 36.5555 174.4767 263° West 478 550 40,000  Level FlightAware Transoceanic
01:03AM 36.5386 174.3158 262° West 478 550 40,000  Level FlightAware Transoceanic
01:04AM 36.5214 174.1549 262° West 478 550 40,000  Level FlightAware Transoceanic
01:05AM 36.5040 173.9941 262° West 478 550 40,000  Level FlightAware Transoceanic
01:06AM 36.4864 173.8334 262° West 478 550 40,000  Level FlightAware Transoceanic
01:07AM 36.4686 173.6728 262° West 478 550 40,000  Level FlightAware Transoceanic
01:08AM 36.4506 173.5122 262° West 478 550 40,000  Level FlightAware Transoceanic
01:08AM 36.4500 173.5167 262° West 480 552 40,000  Level Oakland Oceanic (ODAPS)
01:09AM 36.4323 173.3517 262° West 478 550 40,000  Level FlightAware Transoceanic
01:10AM 36.4139 173.1913 262° West 478 550 40,000  Level FlightAware Transoceanic
01:11AM 36.3952 173.0309 262° West 478 550 40,000  Level FlightAware Transoceanic
01:12AM 36.3763 172.8707 262° West 478 550 40,000  Level FlightAware Transoceanic
01:13AM 36.3572 172.7105 262° West 478 550 40,000  Level FlightAware Transoceanic
01:14AM 36.3375 172.5536 261° West 480 552 40,000  Level FlightAware Transoceanic
01:15AM 36.3180 172.3934 261° West 480 552 40,000  Level FlightAware Transoceanic
01:16AM 36.2983 172.2332 261° West 480 552 40,000  Level FlightAware Transoceanic
01:17AM 36.2784 172.0732 261° West 480 552 40,000  Level FlightAware Transoceanic
01:18AM 36.2582 171.9132 261° West 480 552 40,000  Level FlightAware Transoceanic
01:19AM 36.2379 171.7533 261° West 480 552 40,000  Level FlightAware Transoceanic
01:20AM 36.2173 171.5934 261° West 480 552 40,000  Level FlightAware Transoceanic
01:21AM 36.1965 171.4337 261° West 480 552 40,000  Level FlightAware Transoceanic
01:22AM 36.1755 171.2741 261° West 480 552 40,000  Level FlightAware Transoceanic
01:22AM 36.1667 171.2500 261° West 482 555 40,000  Level Oakland Oceanic (ODAPS)
01:23AM 36.1543 171.1145 261° West 480 552 40,000  Level FlightAware Transoceanic
01:24AM 36.1329 170.9550 261° West 480 552 40,000  Level FlightAware Transoceanic
01:25AM 36.1113 170.7956 260° West 480 552 40,000  Level FlightAware Transoceanic
01:26AM 36.0895 170.6363 260° West 480 552 40,000  Level FlightAware Transoceanic
01:27AM 36.0674 170.4771 260° West 480 552 40,000  Level FlightAware Transoceanic
01:28AM 36.0429 170.3120 260° West 482 555 40,000  Level FlightAware Transoceanic
01:29AM 36.0215 170.1560 260° West 482 555 40,000  Level FlightAware Transoceanic
01:29AM 36.0000 170.0000 266° West 492 566 40,000  Level Oakland Oceanic (ODAPS)
01:30AM 36.0000 170.0000 266° West 482 555 40,000  Level FlightAware Transoceanic
01:31AM 35.9900 169.8287 266° West 482 555 40,000  Level FlightAware Transoceanic
01:32AM 35.9798 169.6574 266° West 482 555 40,000  Level FlightAware Transoceanic
01:33AM 35.9693 169.4862 266° West 482 555 40,000  Level FlightAware Transoceanic
01:34AM 35.9585 169.3150 266° West 482 555 40,000  Level FlightAware Transoceanic
01:35AM 35.9485 169.1582 265° West 492 566 40,000  Level FlightAware Transoceanic
01:35AM 35.9333 168.9500 265° West 495 570 40,000  Level Oakland Oceanic (ODAPS)
01:36AM 35.9375 168.9899 265° West 492 566 40,000  Level FlightAware Transoceanic
01:37AM 35.9262 168.8218 265° West 492 566 40,000  Level FlightAware Transoceanic
01:38AM 35.9148 168.6536 265° West 492 566 40,000  Level FlightAware Transoceanic
01:39AM 35.9030 168.4855 265° West 492 566 40,000  Level FlightAware Transoceanic
01:40AM 35.8911 168.3175 265° West 492 566 40,000  Level FlightAware Transoceanic
01:41AM 35.8789 168.1495 265° West 492 566 40,000  Level FlightAware Transoceanic
01:42AM 35.8611 167.9272 265° West 495 570 40,000  Level FlightAware Transoceanic
01:43AM 35.8482 167.7570 265° West 495 570 40,000  Level FlightAware Transoceanic
01:44AM 35.8351 167.5867 265° West 495 570 40,000  Level FlightAware Transoceanic
01:45AM 35.8218 167.4166 264° West 495 570 40,000  Level FlightAware Transoceanic
01:46AM 35.8082 167.2465 264° West 495 570 40,000  Level FlightAware Transoceanic
01:47AM 35.7943 167.0764 264° West 495 570 40,000  Level FlightAware Transoceanic
01:48AM 35.7803 166.9065 264° West 495 570 40,000  Level FlightAware Transoceanic
01:49AM 35.7659 166.7365 264° West 495 570 40,000  Level FlightAware Transoceanic
01:49AM 35.7667 166.6333 264° West 495 570 40,000  Level Oakland Oceanic (ODAPS)
01:50AM 35.7514 166.5667 264° West 495 570 40,000  Level FlightAware Transoceanic
01:51AM 35.7366 166.3969 264° West 495 570 40,000  Level FlightAware Transoceanic
01:52AM 35.7215 166.2271 264° West 495 570 40,000  Level FlightAware Transoceanic
01:53AM 35.7063 166.0575 264° West 495 570 40,000  Level FlightAware Transoceanic
01:54AM 35.6908 165.8879 264° West 495 570 40,000  Level FlightAware Transoceanic
01:55AM 35.6750 165.7183 263° West 495 570 40,000  Level FlightAware Transoceanic
01:56AM 35.6725 165.6050 263° West 495 570 40,000  Level FlightAware Transoceanic
01:57AM 35.6559 165.4339 263° West 495 570 40,000  Level FlightAware Transoceanic
01:58AM 35.6391 165.2628 263° West 495 570 40,000  Level FlightAware Transoceanic
01:59AM 35.6221 165.0918 263° West 495 570 40,000  Level FlightAware Transoceanic
02:00AM 35.6048 164.9209 263° West 495 570 40,000  Level FlightAware Transoceanic
02:01AM 35.5873 164.7500 263° West 495 570 40,000  Level FlightAware Transoceanic
02:02AM 35.5695 164.5792 263° West 495 570 40,000  Level FlightAware Transoceanic
02:03AM 35.5515 164.4085 263° West 495 570 40,000  Level FlightAware Transoceanic
02:04AM 35.5333 164.2379 262° West 495 570 40,000  Level FlightAware Transoceanic
02:05AM 35.5148 164.0674 262° West 495 570 40,000  Level FlightAware Transoceanic
02:06AM 35.4961 163.8969 262° West 495 570 40,000  Level FlightAware Transoceanic
02:07AM 35.4771 163.7265 262° West 495 570 40,000  Level FlightAware Transoceanic
02:08AM 35.4579 163.5562 262° West 495 570 40,000  Level FlightAware Transoceanic
02:09AM 35.4385 163.3860 262° West 495 570 40,000  Level FlightAware Transoceanic
02:10AM 35.4188 163.2158 262° West 495 570 40,000  Level FlightAware Transoceanic
02:11AM 35.3989 163.0458 262° West 495 570 40,000  Level FlightAware Transoceanic
02:12AM 35.3787 162.8758 262° West 495 570 40,000  Level FlightAware Transoceanic
02:13AM 35.3584 162.7059 262° West 495 570 40,000  Level FlightAware Transoceanic
02:14AM 35.3377 162.5361 261° West 495 570 40,000  Level FlightAware Transoceanic
02:15AM 35.3169 162.3664 261° West 495 570 40,000  Level FlightAware Transoceanic
02:16AM 35.2958 162.1968 261° West 495 570 40,000  Level FlightAware Transoceanic
02:17AM 35.2744 162.0272 261° West 495 570 40,000  Level FlightAware Transoceanic
02:18AM 35.2528 161.8578 261° West 495 570 40,000  Level FlightAware Transoceanic
02:19AM 35.2310 161.6884 261° West 495 570 40,000  Level FlightAware Transoceanic
02:20AM 35.2090 161.5191 261° West 495 570 40,000  Level FlightAware Transoceanic
02:21AM 35.1867 161.3500 261° West 495 570 40,000  Level FlightAware Transoceanic
02:22AM 35.1642 161.1809 261° West 495 570 40,000  Level FlightAware Transoceanic
02:23AM 35.1414 161.0119 261° West 495 570 40,000  Level FlightAware Transoceanic
02:24AM 35.1184 160.8430 261° West 495 570 40,000  Level FlightAware Transoceanic
02:25AM 35.0952 160.6742 260° West 495 570 40,000  Level FlightAware Transoceanic
02:26AM 35.0718 160.5055 260° West 495 570 40,000  Level FlightAware Transoceanic
02:27AM 35.0481 160.3369 260° West 495 570 40,000  Level FlightAware Transoceanic
02:28AM 35.0242 160.1684 260° West 495 570 40,000  Level FlightAware Transoceanic
02:29AM 35.0000 160.0000 273° West 495 570 40,000  Level FlightAware Transoceanic
02:30AM 35.0068 159.8308 273° West 495 570 40,000  Level FlightAware Transoceanic
02:31AM 35.0134 159.6615 273° West 495 570 40,000  Level FlightAware Transoceanic
02:32AM 35.0198 159.4922 273° West 495 570 40,000  Level FlightAware Transoceanic
02:33AM 35.0259 159.3230 272° West 495 570 40,000  Level FlightAware Transoceanic
02:34AM 35.0318 159.1536 272° West 495 570 40,000  Level FlightAware Transoceanic
02:35AM 35.0375 158.9843 272° West 495 570 40,000  Level FlightAware Transoceanic
02:36AM 35.0429 158.8149 272° West 495 570 40,000  Level FlightAware Transoceanic
02:37AM 35.0481 158.6455 272° West 495 570 40,000  Level FlightAware Transoceanic
02:38AM 35.0531 158.4761 272° West 495 570 40,000  Level FlightAware Transoceanic
02:39AM 35.0578 158.3067 272° West 495 570 40,000  Level FlightAware Transoceanic
02:40AM 35.0623 158.1372 272° West 495 570 40,000  Level FlightAware Transoceanic
02:41AM 35.0665 157.9677 272° West 495 570 40,000  Level FlightAware Transoceanic
02:42AM 35.0705 157.7982 272° West 495 570 40,000  Level FlightAware Transoceanic
02:43AM 35.0743 157.6287 272° West 495 570 40,000  Level FlightAware Transoceanic
02:44AM 35.0779 157.4592 271° West 495 570 40,000  Level FlightAware Transoceanic
02:45AM 35.0812 157.2897 271° West 495 570 40,000  Level FlightAware Transoceanic
02:46AM 35.0843 157.1201 271° West 495 570 40,000  Level FlightAware Transoceanic
02:47AM 35.0871 156.9505 271° West 495 570 40,000  Level FlightAware Transoceanic
02:48AM 35.0897 156.7810 271° West 495 570 40,000  Level FlightAware Transoceanic
02:49AM 35.0920 156.6114 271° West 495 570 40,000  Level FlightAware Transoceanic
02:50AM 35.0942 156.4418 271° West 495 570 40,000  Level FlightAware Transoceanic
02:51AM 35.0961 156.2722 271° West 495 570 40,000  Level FlightAware Transoceanic
02:52AM 35.0977 156.1026 271° West 495 570 40,000  Level FlightAware Transoceanic
02:53AM 35.0991 155.9330 271° West 495 570 40,000  Level FlightAware Transoceanic
02:54AM 35.1003 155.7633 270° West 495 570 40,000  Level FlightAware Transoceanic
02:55AM 35.1012 155.5937 270° West 495 570 40,000  Level FlightAware Transoceanic
02:56AM 35.1020 155.4241 270° West 495 570 40,000  Level FlightAware Transoceanic
02:57AM 35.1024 155.2545 270° West 495 570 40,000  Level FlightAware Transoceanic
02:58AM 35.1027 155.0848 270° West 495 570 40,000  Level FlightAware Transoceanic
02:59AM 35.1027 154.9152 270° West 495 570 40,000  Level FlightAware Transoceanic
03:00AM 35.1024 154.7455 270° West 495 570 40,000  Level FlightAware Transoceanic
03:01AM 35.1020 154.5759 270° West 495 570 40,000  Level FlightAware Transoceanic
03:02AM 35.1012 154.4063 270° West 495 570 40,000  Level FlightAware Transoceanic
03:03AM 35.1003 154.2367 270° West 495 570 40,000  Level FlightAware Transoceanic
03:04AM 35.0991 154.0670 269° West 495 570 40,000  Level FlightAware Transoceanic
03:05AM 35.0977 153.8974 269° West 495 570 40,000  Level FlightAware Transoceanic
03:06AM 35.0961 153.7278 269° West 495 570 40,000  Level FlightAware Transoceanic
03:07AM 35.0942 153.5582 269° West 495 570 40,000  Level FlightAware Transoceanic
03:08AM 35.0920 153.3886 269° West 495 570 40,000  Level FlightAware Transoceanic
03:09AM 35.0897 153.2190 269° West 495 570 40,000  Level FlightAware Transoceanic
03:10AM 35.0871 153.0495 269° West 495 570 40,000  Level FlightAware Transoceanic
03:11AM 35.0843 152.8799 269° West 495 570 40,000  Level FlightAware Transoceanic
03:12AM 35.0812 152.7103 269° West 495 570 40,000  Level FlightAware Transoceanic
03:13AM 35.0779 152.5408 269° West 495 570 40,000  Level FlightAware Transoceanic
03:14AM 35.0743 152.3713 268° West 495 570 40,000  Level FlightAware Transoceanic
03:15AM 35.0705 152.2018 268° West 495 570 40,000  Level FlightAware Transoceanic
03:16AM 35.0665 152.0323 268° West 495 570 40,000  Level FlightAware Transoceanic
03:17AM 35.0623 151.8628 268° West 495 570 40,000  Level FlightAware Transoceanic
03:18AM 35.0578 151.6933 268° West 495 570 40,000  Level FlightAware Transoceanic
03:19AM 35.0531 151.5239 268° West 495 570 40,000  Level FlightAware Transoceanic
03:20AM 35.0481 151.3545 268° West 495 570 40,000  Level FlightAware Transoceanic
03:21AM 35.0429 151.1851 268° West 495 570 40,000  Level FlightAware Transoceanic
03:22AM 35.0375 151.0157 268° West 495 570 40,000  Level FlightAware Transoceanic
03:23AM 35.0318 150.8464 268° West 495 570 40,000  Level FlightAware Transoceanic
03:24AM 35.0259 150.6770 268° West 495 570 40,000  Level FlightAware Transoceanic
03:25AM 35.0198 150.5078 267° West 495 570 40,000  Level FlightAware Transoceanic
03:26AM 35.0134 150.3385 267° West 495 570 40,000  Level FlightAware Transoceanic
03:27AM 35.0068 150.1692 267° West 495 570 40,000  Level FlightAware Transoceanic
03:28AM 35.0005 150.0113 267° West  Level FlightAware Approximate
03:29AM 34.9939 149.8533 267° West  Level FlightAware Approximate
03:30AM 35.0128 149.8653 277° West  Level FlightAware Approximate
03:31AM 35.0276 149.7082 277° West  Level FlightAware Approximate
03:32AM 35.0421 149.5510 276° West  Level FlightAware Approximate
03:33AM 35.0565 149.3937 276° West  Level FlightAware Approximate
03:34AM 35.0706 149.2364 276° West  Level FlightAware Approximate
03:35AM 35.0845 149.0790 276° West  Level FlightAware Approximate
03:36AM 35.0983 148.9216 276° West  Level FlightAware Approximate
03:37AM 35.1118 148.7641 276° West  Level FlightAware Approximate
03:38AM 35.1252 148.6066 276° West  Level FlightAware Approximate
03:39AM 35.1383 148.4490 276° West  Level FlightAware Approximate
03:40AM 35.1512 148.2914 276° West  Level FlightAware Approximate
03:41AM 35.1639 148.1337 276° West  Level FlightAware Approximate
03:42AM 35.1764 147.9760 276° West  Level FlightAware Approximate
03:43AM 35.1887 147.8184 275° West  Level FlightAware Approximate
03:44AM 35.2008 147.6608 275° West  Level FlightAware Approximate
03:45AM 35.2127 147.5032 275° West  Level FlightAware Approximate
03:46AM 35.2244 147.3455 275° West  Level FlightAware Approximate
03:47AM 35.2359 147.1877 275° West  Level FlightAware Approximate
03:48AM 35.2472 147.0300 275° West  Level FlightAware Approximate
03:49AM 35.2582 146.8721 275° West  Level FlightAware Approximate
03:50AM 35.2691 146.7143 275° West  Level FlightAware Approximate
03:51AM 35.2797 146.5564 275° West  Level FlightAware Approximate
03:52AM 35.2902 146.3984 275° West  Level FlightAware Approximate
03:53AM 35.3004 146.2404 275° West  Level FlightAware Approximate
03:54AM 35.3105 146.0824 274° West  Level FlightAware Approximate
03:55AM 35.3153 145.9242 268° West  Level FlightAware Approximate
03:56AM 35.3113 145.7657 268° West  Level FlightAware Approximate
03:57AM 35.3072 145.6073 268° West  Level FlightAware Approximate
03:58AM 35.3028 145.4489 268° West  Level FlightAware Approximate
03:59AM 35.2978 145.2905 267° West  Level FlightAware Approximate
04:00AM 35.2918 145.1322 267° West  Level FlightAware Approximate
04:01AM 35.2856 144.9739 267° West  Level FlightAware Approximate
04:02AM 35.2793 144.8156 267° West  Level FlightAware Approximate
04:03AM 35.2727 144.6574 267° West  Level FlightAware Approximate
04:03AM 35.2560 144.1500 267° West 481 554 40,000  Level FlightAware
04:04AM 35.2659 144.4992 267° West  Level FlightAware Approximate
04:04AM 35.2520 144.0620 267° West 481 554 40,000  Level FlightAware
04:05AM 35.2480 143.9780 267° West 481 554 40,000  Level FlightAware
04:05AM 35.2480 143.7970 270° West 487 560 40,000  Level FlightAware
04:06AM 35.2620 143.7020 280° West 488 562 40,000  Level FlightAware
04:07AM 35.2770 143.6130 282° West 490 564 40,000 -120 Level FlightAware
04:07AM 35.2920 143.5240 282° West 485 558 39,900 -540 Descending FlightAware
04:08AM 35.3050 143.4490 282° West 484 557 39,500 -1,140 Descending FlightAware
04:08AM 35.3200 143.3600 282° West 478 550 38,700 -1,020 Descending FlightAware
04:09AM 35.3420 143.2300 282° West 480 552 38,100 -1,620 Descending FlightAware
04:10AM 35.3610 143.1260 283° West 485 558 36,500 -2,280 Descending FlightAware
04:10AM 35.3730 143.0510 281° West 487 560 35,700 -720 Descending FlightAware
04:11AM 35.3890 142.9590 282° West 487 560 35,700 -2,820 Level FlightAware
04:11AM 35.4090 142.8390 282° West 495 570 32,000 -4,200 Descending FlightAware
04:12AM 35.4270 142.7360 282° West 489 563 30,500 -2,460 Descending FlightAware
04:13AM 35.4480 142.6070 281° West 474 545 28,700 -2,280 Descending FlightAware
04:13AM 35.4650 142.5070 282° West 463 533 27,300 -2,100 Descending FlightAware
04:14AM 35.4850 142.3830 281° West 452 520 25,500 -2,280 Descending FlightAware
04:15AM 35.5000 142.2910 281° West 445 512 24,100 -2,400 Descending FlightAware
04:16AM 35.5150 142.2010 282° West 436 502 22,800 -2,220 Descending FlightAware
04:16AM 35.5280 142.1200 281° West 429 494 21,500 -1,980 Descending FlightAware
04:17AM 35.5500 142.0200 285° West 424 488 20,200 -1,500 Descending FlightAware
04:17AM 35.5720 141.9340 287° West 421 484 19,500 -1,020 Descending FlightAware
04:18AM 35.5890 141.8720 289° West 419 482 19,100 -960 Descending FlightAware
04:18AM 35.6090 141.7970 288° West 414 476 18,500 -1,020 Descending FlightAware
04:19AM 35.6320 141.7060 287° West 405 466 17,900 -1,020 Descending FlightAware
04:20AM 35.6520 141.6300 288° West 403 464 17,300 -1,020 Descending FlightAware
04:20AM 35.6700 141.5630 288° West 401 461 16,800 -1,380 Descending FlightAware
04:21AM 35.6930 141.4750 288° West 393 452 15,600 -1,860 Descending FlightAware
04:21AM 35.7100 141.4090 288° West 388 447 14,600 -2,040 Descending FlightAware
04:22AM 35.7300 141.3310 288° West 380 437 13,300 -1,920 Descending FlightAware
04:23AM 35.7460 141.2680 287° West 372 428 12,400 -1,800 Descending FlightAware
04:23AM 35.7650 141.1930 287° West 362 417 11,300 -1,260 Descending FlightAware
04:24AM 35.7850 141.1180 288° West 333 383 10,900 -600 Descending FlightAware
04:24AM 35.8000 141.0580 287° West 306 352 10,600 -540 Descending FlightAware
04:25AM 35.8140 141.0020 287° West 287 330 10,300 -540 Descending FlightAware
04:26AM 35.8280 140.9470 287° West 266 306 10,000 -720 Descending FlightAware
04:26AM 35.8350 140.9190 287° West 260 299 9,700 -900 Descending FlightAware
04:26AM 35.8430 140.8910 289° West 260 299 9,400 -1,080 Descending FlightAware
04:27AM 35.8550 140.8640 299° West 259 298 9,000 -1,080 Descending FlightAware
04:27AM 35.8630 140.8440 296° West 256 295 8,800 -900 Descending FlightAware
04:27AM 35.8750 140.8180 300° West 254 292 8,500 -1,080 Descending FlightAware
04:28AM 35.8900 140.7860 300° West 253 291 8,000 -1,080 Descending FlightAware
04:28AM 35.8950 140.7730 295° West 253 291 7,900 -1,080 Descending FlightAware
04:28AM 35.9100 140.7410 300° West 252 290 7,400 -840 Descending FlightAware
04:28AM 35.9210 140.7170 300° West 241 277 7,300 -300 Descending FlightAware
04:29AM 35.9320 140.6930 300° West 234 269 7,200 -600 Descending FlightAware
04:29AM 35.9420 140.6700 298° West 228 262 6,900 -900 Descending FlightAware
04:29AM 35.9500 140.6530 300° West 226 260 6,700 -900 Descending FlightAware
04:30AM 35.9600 140.6310 299° West 221 254 6,400 -1,080 Descending FlightAware
04:30AM 35.9680 140.6130 299° West 220 253 6,100 -540 Descending FlightAware
04:30AM 35.9780 140.5910 299° West 220 253 6,100  Level FlightAware
04:31AM 35.9880 140.5690 299° West 220 253 6,100  Level FlightAware
04:31AM 35.9930 140.5510 289° West 217 250 6,100  Level FlightAware
04:31AM 35.9940 140.5320 274° West 217 250 6,100  Level FlightAware
04:32AM 35.9930 140.4980 268° West 192 221 6,100 -120 Level FlightAware
04:32AM 35.9920 140.4760 267° West 184 212 6,000 -600 Descending FlightAware
04:32AM 35.9920 140.4660 270° West 183 211 5,800 -1,080 Descending FlightAware
04:33AM 35.9910 140.4400 267° West 183 211 5,400 -1,140 Descending FlightAware
04:33AM 35.9900 140.4090 268° West 183 211 4,800 -1,080 Descending FlightAware
04:33AM 35.9890 140.3890 266° West 183 211 4,500 -1,080 Descending FlightAware
04:34AM 35.9880 140.3580 268° West 180 207 4,000 -1,080 Descending FlightAware
04:34AM 35.9870 140.3380 266° West 179 206 3,700 -960 Descending FlightAware
04:35AM 35.9860 140.3140 267° West 178 205 3,300 -1,140 Descending FlightAware
04:35AM 35.9850 140.2950 266° West 179 206 2,900 -780 Descending FlightAware
04:35AM 35.9840 140.2730 267° West 176 203 2,800 -180 Descending FlightAware
04:36AM 35.9830 140.2590 265° West 167 192 2,800  Level FlightAware
04:36AM 35.9830 140.2460 270° West 165 190 2,800  Level FlightAware
04:36AM 35.9800 140.2390 242° Southwest 163 188 2,800  Level FlightAware
04:36AM 35.9770 140.2340 233° Southwest 161 185 2,800  Level FlightAware
04:36AM 35.9740 140.2330 195° South 162 186 2,800  Level FlightAware
04:36AM 35.9690 140.2310 198° South 164 189 2,800 180 Level FlightAware
04:37AM 35.9530 140.2390 158° South 177 204 2,900  Climbing FlightAware
04:37AM 35.9370 140.2510 149° Southeast 178 205 2,800  Descending FlightAware
04:37AM 35.9220 140.2620 149° Southeast 181 208 2,900 120 Climbing FlightAware
04:38AM 35.9070 140.2720 152° Southeast 179 206 2,900 -300 Level FlightAware
04:38AM 35.8930 140.2820 150° Southeast 180 207 2,700 -780 Descending FlightAware
04:38AM 35.8780 140.2930 149° Southeast 174 200 2,400 -960 Descending FlightAware
04:39AM 35.8620 140.3050 149° Southeast 161 185 2,000 -840 Descending FlightAware
04:39AM 35.8540 140.3100 153° Southeast 161 185 1,900 -780 Descending FlightAware
04:39AM 35.8420 140.3190 149° Southeast 159 183 1,600 -900 Descending FlightAware
04:40AM 35.8290 140.3290 148° Southeast 151 174 1,300 -720 Descending FlightAware
04:40AM 35.8170 140.3380 149° Southeast 143 165 1,100 -600 Descending FlightAware
04:40AM 35.8050 140.3460 152° Southeast 142 163 900 -720 Descending FlightAware
04:41AM 35.7920 140.3560 148° Southeast 139 160 600 -720 Descending FlightAware
04:41AM 35.7860 140.3600 152° Southeast 138 159 500 -360 Descending FlightAware
04:41AM 35.7670 140.3740 149° Southeast 138 159 300 -300 Descending FlightAware